Terminal Aerodrome Forecast
Issued by NWS

Home | Current Version | Previous Version | Text Only | Print | Product List | Glossary On
Versions: 1 2 3 4 5 6 7 8 9 10 11 12 13 14 15 16 17 18 19 20 21 22 23 24 25 26 27 28 29 30 31
000
FTUS42 KCAE 240200 AAB
TAFCUB
TAF AMD
KCUB 240223Z 2402/2424 20005KT P6SM BKN050
     FM240600 VRB03KT P6SM OVC015
     FM241800 22014G22KT P6SM BKN025
     FM242100 23011G18KT P6SM SCT015 BKN035=

USA.gov is the U.S. government's official web portal to all federal, state and local government web resources and services.